sensor_id;sensor_type;location;lat;lon;timestamp;P1;durP1;ratioP1;P2;durP2;ratioP2
20888;SDS011;10604;51.976;7.594;2022-08-20T00:00:47;11.05;;;9.73;;
20888;SDS011;10604;51.976;7.594;2022-08-20T00:03:22;10.63;;;9.53;;
20888;SDS011;10604;51.976;7.594;2022-08-20T00:06:26;14.02;;;11.45;;
20888;SDS011;10604;51.976;7.594;2022-08-20T00:08:46;12.50;;;11.30;;
20888;SDS011;10604;51.976;7.594;2022-08-20T00:11:12;12.83;;;11.53;;
20888;SDS011;10604;51.976;7.594;2022-08-20T00:13:41;11.52;;;10.45;;
20888;SDS011;10604;51.976;7.594;2022-08-20T00:16:10;12.15;;;10.95;;
20888;SDS011;10604;51.976;7.594;2022-08-20T00:18:36;11.68;;;10.57;;
20888;SDS011;10604;51.976;7.594;2022-08-20T00:21:07;11.88;;;10.70;;
20888;SDS011;10604;51.976;7.594;2022-08-20T00:23:38;12.63;;;11.33;;
20888;SDS011;10604;51.976;7.594;2022-08-20T00:26:05;12.27;;;11.07;;
20888;SDS011;10604;51.976;7.594;2022-08-20T00:28:31;11.70;;;10.60;;
20888;SDS011;10604;51.976;7.594;2022-08-20T00:30:56;11.90;;;10.27;;
20888;SDS011;10604;51.976;7.594;2022-08-20T00:33:23;11.97;;;10.77;;
20888;SDS011;10604;51.976;7.594;2022-08-20T00:35:54;13.00;;;11.80;;
20888;SDS011;10604;51.976;7.594;2022-08-20T00:38:23;12.88;;;11.52;;
20888;SDS011;10604;51.976;7.594;2022-08-20T00:40:54;13.52;;;12.13;;
20888;SDS011;10604;51.976;7.594;2022-08-20T00:46:12;12.13;;;10.85;;
20888;SDS011;10604;51.976;7.594;2022-08-20T00:48:47;14.23;;;12.73;;
20888;SDS011;10604;51.976;7.594;2022-08-20T00:53:52;14.52;;;13.02;;
20888;SDS011;10604;51.976;7.594;2022-08-20T00:56:19;14.25;;;12.85;;
20888;SDS011;10604;51.976;7.594;2022-08-20T00:58:45;17.27;;;15.57;;
20888;SDS011;10604;51.976;7.594;2022-08-20T01:01:11;16.70;;;15.00;;
20888;SDS011;10604;51.976;7.594;2022-08-20T01:03:39;16.60;;;14.90;;
20888;SDS011;10604;51.976;7.594;2022-08-20T01:06:06;16.63;;;14.90;;
20888;SDS011;10604;51.976;7.594;2022-08-20T01:08:35;16.70;;;15.00;;
20888;SDS011;10604;51.976;7.594;2022-08-20T01:11:01;16.08;;;14.50;;
20888;SDS011;10604;51.976;7.594;2022-08-20T01:13:46;14.55;;;13.07;;
20888;SDS011;10604;51.976;7.594;2022-08-20T01:16:20;14.38;;;12.82;;
20888;SDS011;10604;51.976;7.594;2022-08-20T01:18:50;12.63;;;11.32;;
20888;SDS011;10604;51.976;7.594;2022-08-20T01:21:18;12.30;;;10.98;;
20888;SDS011;10604;51.976;7.594;2022-08-20T01:26:43;12.10;;;10.40;;
20888;SDS011;10604;51.976;7.594;2022-08-20T01:29:19;10.70;;;9.65;;
20888;SDS011;10604;51.976;7.594;2022-08-20T01:31:49;9.90;;;8.90;;
20888;SDS011;10604;51.976;7.594;2022-08-20T01:34:18;9.27;;;8.38;;
20888;SDS011;10604;51.976;7.594;2022-08-20T01:36:50;8.63;;;7.72;;
20888;SDS011;10604;51.976;7.594;2022-08-20T01:39:19;9.18;;;8.27;;
20888;SDS011;10604;51.976;7.594;2022-08-20T01:42:06;9.30;;;8.40;;
20888;SDS011;10604;51.976;7.594;2022-08-20T01:44:33;9.05;;;8.15;;
20888;SDS011;10604;51.976;7.594;2022-08-20T01:47:14;7.88;;;7.07;;
20888;SDS011;10604;51.976;7.594;2022-08-20T01:49:45;8.10;;;7.40;;
20888;SDS011;10604;51.976;7.594;2022-08-20T01:52:16;9.60;;;8.33;;
20888;SDS011;10604;51.976;7.594;2022-08-20T01:55:05;9.10;;;8.20;;
20888;SDS011;10604;51.976;7.594;2022-08-20T01:57:32;10.47;;;9.47;;
20888;SDS011;10604;51.976;7.594;2022-08-20T01:59:58;10.05;;;9.05;;
20888;SDS011;10604;51.976;7.594;2022-08-20T02:02:24;11.95;;;10.23;;
20888;SDS011;10604;51.976;7.594;2022-08-20T02:04:50;11.63;;;10.43;;
20888;SDS011;10604;51.976;7.594;2022-08-20T02:07:18;13.07;;;11.88;;
20888;SDS011;10604;51.976;7.594;2022-08-20T02:09:46;13.65;;;12.25;;
20888;SDS011;10604;51.976;7.594;2022-08-20T02:12:13;13.68;;;12.27;;
20888;SDS011;10604;51.976;7.594;2022-08-20T02:14:42;13.18;;;11.88;;
20888;SDS011;10604;51.976;7.594;2022-08-20T02:17:10;13.40;;;12.00;;
20888;SDS011;10604;51.976;7.594;2022-08-20T02:19:41;16.33;;;14.73;;
20888;SDS011;10604;51.976;7.594;2022-08-20T02:22:15;16.08;;;14.38;;
20888;SDS011;10604;51.976;7.594;2022-08-20T02:24:44;16.00;;;13.77;;
20888;SDS011;10604;51.976;7.594;2022-08-20T02:27:10;16.40;;;14.57;;
20888;SDS011;10604;51.976;7.594;2022-08-20T02:29:36;16.48;;;14.85;;
20888;SDS011;10604;51.976;7.594;2022-08-20T02:32:02;16.20;;;14.68;;
20888;SDS011;10604;51.976;7.594;2022-08-20T02:34:30;16.05;;;14.45;;
20888;SDS011;10604;51.976;7.594;2022-08-20T02:36:56;15.68;;;14.10;;
20888;SDS011;10604;51.976;7.594;2022-08-20T02:39:21;15.70;;;14.20;;
20888;SDS011;10604;51.976;7.594;2022-08-20T02:41:47;15.37;;;13.77;;
20888;SDS011;10604;51.976;7.594;2022-08-20T02:44:14;15.90;;;14.40;;
20888;SDS011;10604;51.976;7.594;2022-08-20T02:46:42;16.13;;;14.43;;
20888;SDS011;10604;51.976;7.594;2022-08-20T02:49:08;15.20;;;13.60;;
20888;SDS011;10604;51.976;7.594;2022-08-20T02:51:33;14.90;;;13.50;;
20888;SDS011;10604;51.976;7.594;2022-08-20T02:53:58;16.03;;;14.43;;
20888;SDS011;10604;51.976;7.594;2022-08-20T02:56:24;15.97;;;14.30;;
20888;SDS011;10604;51.976;7.594;2022-08-20T02:58:50;16.70;;;15.10;;
20888;SDS011;10604;51.976;7.594;2022-08-20T03:01:16;17.30;;;15.73;;
20888;SDS011;10604;51.976;7.594;2022-08-20T03:03:42;17.07;;;15.43;;
20888;SDS011;10604;51.976;7.594;2022-08-20T03:06:08;16.77;;;15.07;;
20888;SDS011;10604;51.976;7.594;2022-08-20T03:08:35;16.35;;;14.85;;
20888;SDS011;10604;51.976;7.594;2022-08-20T03:11:01;16.92;;;15.13;;
20888;SDS011;10604;51.976;7.594;2022-08-20T03:13:26;15.40;;;13.80;;
20888;SDS011;10604;51.976;7.594;2022-08-20T03:15:53;15.63;;;14.15;;
20888;SDS011;10604;51.976;7.594;2022-08-20T03:18:21;16.42;;;14.68;;
20888;SDS011;10604;51.976;7.594;2022-08-20T03:20:49;15.48;;;13.98;;
20888;SDS011;10604;51.976;7.594;2022-08-20T03:23:15;16.83;;;15.17;;
20888;SDS011;10604;51.976;7.594;2022-08-20T03:25:43;16.95;;;15.25;;
20888;SDS011;10604;51.976;7.594;2022-08-20T03:28:09;15.80;;;14.40;;
20888;SDS011;10604;51.976;7.594;2022-08-20T03:30:35;16.67;;;15.13;;
20888;SDS011;10604;51.976;7.594;2022-08-20T03:33:00;16.38;;;14.82;;
20888;SDS011;10604;51.976;7.594;2022-08-20T03:35:27;15.03;;;13.53;;
20888;SDS011;10604;51.976;7.594;2022-08-20T03:37:54;15.40;;;14.00;;
20888;SDS011;10604;51.976;7.594;2022-08-20T03:40:23;15.10;;;13.70;;
20888;SDS011;10604;51.976;7.594;2022-08-20T03:42:51;16.00;;;14.50;;
20888;SDS011;10604;51.976;7.594;2022-08-20T03:45:17;14.20;;;12.90;;
20888;SDS011;10604;51.976;7.594;2022-08-20T03:47:43;15.00;;;13.60;;
20888;SDS011;10604;51.976;7.594;2022-08-20T03:50:09;14.90;;;13.50;;
20888;SDS011;10604;51.976;7.594;2022-08-20T03:52:37;14.30;;;13.02;;
20888;SDS011;10604;51.976;7.594;2022-08-20T03:55:05;14.43;;;13.13;;
20888;SDS011;10604;51.976;7.594;2022-08-20T03:57:32;14.15;;;12.85;;
20888;SDS011;10604;51.976;7.594;2022-08-20T03:59:58;15.27;;;13.88;;
20888;SDS011;10604;51.976;7.594;2022-08-20T04:02:23;14.17;;;12.87;;
20888;SDS011;10604;51.976;7.594;2022-08-20T04:04:49;14.35;;;13.05;;
20888;SDS011;10604;51.976;7.594;2022-08-20T04:07:17;15.50;;;14.00;;
20888;SDS011;10604;51.976;7.594;2022-08-20T04:09:50;14.37;;;13.17;;
20888;SDS011;10604;51.976;7.594;2022-08-20T04:12:17;14.97;;;13.67;;
20888;SDS011;10604;51.976;7.594;2022-08-20T04:14:43;14.63;;;13.32;;
20888;SDS011;10604;51.976;7.594;2022-08-20T04:17:09;15.47;;;14.07;;
20888;SDS011;10604;51.976;7.594;2022-08-20T04:19:36;15.70;;;14.30;;
20888;SDS011;10604;51.976;7.594;2022-08-20T04:22:03;16.00;;;14.50;;
20888;SDS011;10604;51.976;7.594;2022-08-20T04:24:29;14.52;;;13.27;;
20888;SDS011;10604;51.976;7.594;2022-08-20T04:26:55;14.48;;;13.18;;
20888;SDS011;10604;51.976;7.594;2022-08-20T04:29:22;15.05;;;13.65;;
20888;SDS011;10604;51.976;7.594;2022-08-20T04:31:50;14.52;;;13.23;;
20888;SDS011;10604;51.976;7.594;2022-08-20T04:34:16;14.98;;;13.68;;
20888;SDS011;10604;51.976;7.594;2022-08-20T04:36:42;15.52;;;14.02;;
20888;SDS011;10604;51.976;7.594;2022-08-20T04:39:08;14.52;;;13.23;;
20888;SDS011;10604;51.976;7.594;2022-08-20T04:41:33;14.13;;;12.80;;
20888;SDS011;10604;51.976;7.594;2022-08-20T04:43:59;14.73;;;13.33;;
20888;SDS011;10604;51.976;7.594;2022-08-20T04:46:25;15.15;;;13.65;;
20888;SDS011;10604;51.976;7.594;2022-08-20T04:48:52;14.33;;;13.10;;
20888;SDS011;10604;51.976;7.594;2022-08-20T04:51:19;13.93;;;12.73;;
20888;SDS011;10604;51.976;7.594;2022-08-20T04:53:45;13.70;;;12.40;;
20888;SDS011;10604;51.976;7.594;2022-08-20T04:56:11;13.40;;;12.20;;
20888;SDS011;10604;51.976;7.594;2022-08-20T04:58:37;14.73;;;13.33;;
20888;SDS011;10604;51.976;7.594;2022-08-20T05:01:05;14.57;;;13.20;;
20888;SDS011;10604;51.976;7.594;2022-08-20T05:03:33;13.65;;;12.45;;
20888;SDS011;10604;51.976;7.594;2022-08-20T05:06:02;15.10;;;13.65;;
20888;SDS011;10604;51.976;7.594;2022-08-20T05:08:30;13.80;;;12.60;;
20888;SDS011;10604;51.976;7.594;2022-08-20T05:10:56;13.25;;;12.05;;
20888;SDS011;10604;51.976;7.594;2022-08-20T05:13:22;13.13;;;11.93;;
20888;SDS011;10604;51.976;7.594;2022-08-20T05:15:48;12.90;;;11.70;;
20888;SDS011;10604;51.976;7.594;2022-08-20T05:18:15;12.97;;;11.70;;
20888;SDS011;10604;51.976;7.594;2022-08-20T05:20:43;13.55;;;12.35;;
20888;SDS011;10604;51.976;7.594;2022-08-20T05:23:10;14.30;;;12.90;;
20888;SDS011;10604;51.976;7.594;2022-08-20T05:25:37;15.20;;;13.70;;
20888;SDS011;10604;51.976;7.594;2022-08-20T05:28:06;15.70;;;14.20;;
20888;SDS011;10604;51.976;7.594;2022-08-20T05:30:34;15.48;;;14.07;;
20888;SDS011;10604;51.976;7.594;2022-08-20T05:33:02;16.83;;;15.33;;
20888;SDS011;10604;51.976;7.594;2022-08-20T05:35:30;15.73;;;14.32;;
20888;SDS011;10604;51.976;7.594;2022-08-20T05:37:59;14.77;;;13.48;;
20888;SDS011;10604;51.976;7.594;2022-08-20T05:40:25;16.98;;;15.48;;
20888;SDS011;10604;51.976;7.594;2022-08-20T05:42:52;16.95;;;15.30;;
20888;SDS011;10604;51.976;7.594;2022-08-20T05:45:18;16.43;;;14.93;;
20888;SDS011;10604;51.976;7.594;2022-08-20T05:47:44;17.48;;;15.80;;
20888;SDS011;10604;51.976;7.594;2022-08-20T05:50:10;18.17;;;16.47;;
20888;SDS011;10604;51.976;7.594;2022-08-20T05:52:37;17.65;;;15.95;;
20888;SDS011;10604;51.976;7.594;2022-08-20T05:55:04;18.47;;;16.67;;
20888;SDS011;10604;51.976;7.594;2022-08-20T05:57:31;17.80;;;16.10;;
20888;SDS011;10604;51.976;7.594;2022-08-20T05:59:58;16.23;;;14.63;;
20888;SDS011;10604;51.976;7.594;2022-08-20T06:02:23;17.30;;;15.68;;
20888;SDS011;10604;51.976;7.594;2022-08-20T06:05:07;17.33;;;15.63;;
20888;SDS011;10604;51.976;7.594;2022-08-20T06:07:33;18.05;;;16.35;;
20888;SDS011;10604;51.976;7.594;2022-08-20T06:09:59;17.97;;;16.27;;
20888;SDS011;10604;51.976;7.594;2022-08-20T06:12:25;18.70;;;16.85;;
20888;SDS011;10604;51.976;7.594;2022-08-20T06:14:50;17.13;;;15.27;;
20888;SDS011;10604;51.976;7.594;2022-08-20T06:17:16;19.20;;;17.40;;
20888;SDS011;10604;51.976;7.594;2022-08-20T06:19:43;17.50;;;15.90;;
20888;SDS011;10604;51.976;7.594;2022-08-20T06:22:10;17.67;;;15.98;;
20888;SDS011;10604;51.976;7.594;2022-08-20T06:24:37;17.17;;;15.57;;
20888;SDS011;10604;51.976;7.594;2022-08-20T06:27:03;17.45;;;15.85;;
20888;SDS011;10604;51.976;7.594;2022-08-20T06:29:29;18.25;;;16.58;;
20888;SDS011;10604;51.976;7.594;2022-08-20T06:31:57;17.50;;;15.80;;
20888;SDS011;10604;51.976;7.594;2022-08-20T06:34:23;17.98;;;16.17;;
20888;SDS011;10604;51.976;7.594;2022-08-20T06:36:55;16.52;;;14.95;;
20888;SDS011;10604;51.976;7.594;2022-08-20T06:39:21;18.80;;;17.00;;
20888;SDS011;10604;51.976;7.594;2022-08-20T06:41:47;18.48;;;16.77;;
20888;SDS011;10604;51.976;7.594;2022-08-20T06:44:13;18.20;;;16.50;;
20888;SDS011;10604;51.976;7.594;2022-08-20T06:46:39;18.77;;;17.00;;
20888;SDS011;10604;51.976;7.594;2022-08-20T06:49:05;17.67;;;16.08;;
20888;SDS011;10604;51.976;7.594;2022-08-20T06:51:32;17.23;;;15.63;;
20888;SDS011;10604;51.976;7.594;2022-08-20T06:53:58;17.70;;;16.10;;
20888;SDS011;10604;51.976;7.594;2022-08-20T06:56:24;17.67;;;16.13;;
20888;SDS011;10604;51.976;7.594;2022-08-20T06:58:50;17.90;;;16.15;;
20888;SDS011;10604;51.976;7.594;2022-08-20T07:01:15;18.10;;;16.43;;
20888;SDS011;10604;51.976;7.594;2022-08-20T07:03:44;18.40;;;16.77;;
20888;SDS011;10604;51.976;7.594;2022-08-20T07:06:11;17.58;;;15.88;;
20888;SDS011;10604;51.976;7.594;2022-08-20T07:08:36;17.03;;;15.40;;
20888;SDS011;10604;51.976;7.594;2022-08-20T07:11:01;18.23;;;16.53;;
20888;SDS011;10604;51.976;7.594;2022-08-20T07:13:27;17.47;;;15.67;;
20888;SDS011;10604;51.976;7.594;2022-08-20T07:15:53;17.63;;;15.82;;
20888;SDS011;10604;51.976;7.594;2022-08-20T07:18:19;17.58;;;15.82;;
20888;SDS011;10604;51.976;7.594;2022-08-20T07:20:46;18.40;;;16.60;;
20888;SDS011;10604;51.976;7.594;2022-08-20T07:23:12;18.45;;;16.75;;
20888;SDS011;10604;51.976;7.594;2022-08-20T07:25:41;18.87;;;17.13;;
20888;SDS011;10604;51.976;7.594;2022-08-20T07:28:11;17.13;;;15.50;;
20888;SDS011;10604;51.976;7.594;2022-08-20T07:30:39;15.48;;;13.98;;
20888;SDS011;10604;51.976;7.594;2022-08-20T07:33:24;15.00;;;13.70;;
20888;SDS011;10604;51.976;7.594;2022-08-20T07:35:54;13.98;;;12.68;;
20888;SDS011;10604;51.976;7.594;2022-08-20T07:38:24;14.33;;;13.03;;
20888;SDS011;10604;51.976;7.594;2022-08-20T07:40:52;14.45;;;13.02;;
20888;SDS011;10604;51.976;7.594;2022-08-20T07:43:22;15.37;;;13.87;;
20888;SDS011;10604;51.976;7.594;2022-08-20T07:45:50;15.35;;;13.95;;
20888;SDS011;10604;51.976;7.594;2022-08-20T07:48:16;14.70;;;13.10;;
20888;SDS011;10604;51.976;7.594;2022-08-20T07:50:42;12.93;;;11.73;;
20888;SDS011;10604;51.976;7.594;2022-08-20T07:53:07;12.20;;;11.00;;
20888;SDS011;10604;51.976;7.594;2022-08-20T07:55:33;12.65;;;11.45;;
20888;SDS011;10604;51.976;7.594;2022-08-20T07:58:05;12.27;;;10.73;;
20888;SDS011;10604;51.976;7.594;2022-08-20T08:00:33;10.95;;;9.90;;
20888;SDS011;10604;51.976;7.594;2022-08-20T08:02:58;10.47;;;9.37;;
20888;SDS011;10604;51.976;7.594;2022-08-20T08:05:24;9.82;;;8.93;;
20888;SDS011;10604;51.976;7.594;2022-08-20T08:07:50;9.88;;;8.98;;
20888;SDS011;10604;51.976;7.594;2022-08-20T08:10:17;9.80;;;8.77;;
20888;SDS011;10604;51.976;7.594;2022-08-20T08:12:46;9.85;;;8.90;;
20888;SDS011;10604;51.976;7.594;2022-08-20T08:15:16;9.77;;;8.77;;
20888;SDS011;10604;51.976;7.594;2022-08-20T08:17:46;8.20;;;7.45;;
20888;SDS011;10604;51.976;7.594;2022-08-20T08:20:14;8.85;;;7.93;;
20888;SDS011;10604;51.976;7.594;2022-08-20T08:22:40;8.98;;;8.07;;
20888;SDS011;10604;51.976;7.594;2022-08-20T08:25:08;8.15;;;7.35;;
20888;SDS011;10604;51.976;7.594;2022-08-20T08:27:35;8.35;;;5.70;;
20888;SDS011;10604;51.976;7.594;2022-08-20T08:30:01;6.30;;;5.30;;
20888;SDS011;10604;51.976;7.594;2022-08-20T08:32:28;7.38;;;6.68;;
20888;SDS011;10604;51.976;7.594;2022-08-20T08:34:55;6.35;;;5.50;;
20888;SDS011;10604;51.976;7.594;2022-08-20T08:37:21;6.65;;;5.97;;
20888;SDS011;10604;51.976;7.594;2022-08-20T08:39:46;6.40;;;5.80;;
20888;SDS011;10604;51.976;7.594;2022-08-20T08:42:20;7.23;;;6.60;;
20888;SDS011;10604;51.976;7.594;2022-08-20T08:45:08;7.93;;;7.00;;
20888;SDS011;10604;51.976;7.594;2022-08-20T08:47:35;7.28;;;6.55;;
20888;SDS011;10604;51.976;7.594;2022-08-20T08:50:04;8.20;;;6.50;;
20888;SDS011;10604;51.976;7.594;2022-08-20T08:52:32;6.63;;;6.03;;
20888;SDS011;10604;51.976;7.594;2022-08-20T08:55:03;6.55;;;5.95;;
20888;SDS011;10604;51.976;7.594;2022-08-20T08:57:30;6.68;;;5.93;;
20888;SDS011;10604;51.976;7.594;2022-08-20T09:00:02;5.57;;;5.00;;
20888;SDS011;10604;51.976;7.594;2022-08-20T09:02:33;5.18;;;4.68;;
20888;SDS011;10604;51.976;7.594;2022-08-20T09:05:00;6.07;;;5.47;;
20888;SDS011;10604;51.976;7.594;2022-08-20T09:07:29;5.25;;;4.68;;
20888;SDS011;10604;51.976;7.594;2022-08-20T09:09:57;5.90;;;4.43;;
20888;SDS011;10604;51.976;7.594;2022-08-20T09:12:24;6.45;;;4.50;;
20888;SDS011;10604;51.976;7.594;2022-08-20T09:14:51;7.70;;;4.53;;
20888;SDS011;10604;51.976;7.594;2022-08-20T09:17:19;4.60;;;3.90;;
20888;SDS011;10604;51.976;7.594;2022-08-20T09:19:46;5.47;;;4.07;;
20888;SDS011;10604;51.976;7.594;2022-08-20T09:22:13;5.75;;;4.05;;
20888;SDS011;10604;51.976;7.594;2022-08-20T09:24:41;5.65;;;3.80;;
20888;SDS011;10604;51.976;7.594;2022-08-20T09:27:07;5.47;;;3.20;;
20888;SDS011;10604;51.976;7.594;2022-08-20T09:29:33;4.93;;;3.40;;
20888;SDS011;10604;51.976;7.594;2022-08-20T09:32:06;4.28;;;3.80;;
20888;SDS011;10604;51.976;7.594;2022-08-20T09:34:35;7.60;;;3.92;;
20888;SDS011;10604;51.976;7.594;2022-08-20T09:37:05;6.22;;;4.30;;
20888;SDS011;10604;51.976;7.594;2022-08-20T09:39:31;6.50;;;4.50;;
20888;SDS011;10604;51.976;7.594;2022-08-20T09:42:09;5.60;;;3.50;;
20888;SDS011;10604;51.976;7.594;2022-08-20T09:44:36;4.03;;;2.95;;
20888;SDS011;10604;51.976;7.594;2022-08-20T09:47:02;4.17;;;2.50;;
20888;SDS011;10604;51.976;7.594;2022-08-20T09:49:28;4.30;;;2.65;;
20888;SDS011;10604;51.976;7.594;2022-08-20T09:51:54;3.60;;;2.60;;
20888;SDS011;10604;51.976;7.594;2022-08-20T09:54:20;4.53;;;3.15;;
20888;SDS011;10604;51.976;7.594;2022-08-20T09:56:46;3.92;;;3.00;;
20888;SDS011;10604;51.976;7.594;2022-08-20T09:59:12;3.90;;;3.20;;
20888;SDS011;10604;51.976;7.594;2022-08-20T10:01:38;4.28;;;3.20;;
20888;SDS011;10604;51.976;7.594;2022-08-20T10:04:04;3.73;;;2.83;;
20888;SDS011;10604;51.976;7.594;2022-08-20T10:06:29;4.60;;;2.97;;
20888;SDS011;10604;51.976;7.594;2022-08-20T10:08:55;3.72;;;2.65;;
20888;SDS011;10604;51.976;7.594;2022-08-20T10:11:20;3.03;;;2.73;;
20888;SDS011;10604;51.976;7.594;2022-08-20T10:13:45;4.50;;;3.00;;
20888;SDS011;10604;51.976;7.594;2022-08-20T10:16:11;3.70;;;2.87;;
20888;SDS011;10604;51.976;7.594;2022-08-20T10:18:37;5.97;;;3.28;;
20888;SDS011;10604;51.976;7.594;2022-08-20T10:21:07;4.50;;;2.60;;
20888;SDS011;10604;51.976;7.594;2022-08-20T10:23:34;3.70;;;2.50;;
20888;SDS011;10604;51.976;7.594;2022-08-20T10:25:59;4.80;;;2.70;;
20888;SDS011;10604;51.976;7.594;2022-08-20T10:28:25;3.25;;;2.78;;
20888;SDS011;10604;51.976;7.594;2022-08-20T10:30:50;5.00;;;2.90;;
20888;SDS011;10604;51.976;7.594;2022-08-20T10:33:15;3.80;;;2.77;;
20888;SDS011;10604;51.976;7.594;2022-08-20T10:35:41;2.93;;;2.50;;
20888;SDS011;10604;51.976;7.594;2022-08-20T10:38:06;4.15;;;2.83;;
20888;SDS011;10604;51.976;7.594;2022-08-20T10:40:32;5.80;;;3.07;;
20888;SDS011;10604;51.976;7.594;2022-08-20T10:42:57;3.10;;;2.70;;
20888;SDS011;10604;51.976;7.594;2022-08-20T10:45:23;3.53;;;2.55;;
20888;SDS011;10604;51.976;7.594;2022-08-20T10:47:49;3.80;;;2.70;;
20888;SDS011;10604;51.976;7.594;2022-08-20T10:50:15;2.63;;;2.40;;
20888;SDS011;10604;51.976;7.594;2022-08-20T10:52:41;4.47;;;2.60;;
20888;SDS011;10604;51.976;7.594;2022-08-20T10:55:07;3.92;;;2.45;;
20888;SDS011;10604;51.976;7.594;2022-08-20T10:57:33;3.50;;;2.22;;
20888;SDS011;10604;51.976;7.594;2022-08-20T10:59:59;4.15;;;2.45;;
20888;SDS011;10604;51.976;7.594;2022-08-20T11:02:25;3.70;;;2.00;;
20888;SDS011;10604;51.976;7.594;2022-08-20T11:04:51;3.78;;;2.92;;
20888;SDS011;10604;51.976;7.594;2022-08-20T11:10:20;2.92;;;2.13;;
20888;SDS011;10604;51.976;7.594;2022-08-20T11:12:47;3.50;;;2.00;;
20888;SDS011;10604;51.976;7.594;2022-08-20T11:15:13;2.47;;;1.90;;
20888;SDS011;10604;51.976;7.594;2022-08-20T11:17:39;4.25;;;2.30;;
20888;SDS011;10604;51.976;7.594;2022-08-20T11:20:07;3.72;;;2.13;;
20888;SDS011;10604;51.976;7.594;2022-08-20T11:22:33;3.13;;;2.60;;
20888;SDS011;10604;51.976;7.594;2022-08-20T11:24:59;5.05;;;2.70;;
20888;SDS011;10604;51.976;7.594;2022-08-20T11:27:26;4.23;;;2.30;;
20888;SDS011;10604;51.976;7.594;2022-08-20T11:29:54;4.27;;;2.47;;
20888;SDS011;10604;51.976;7.594;2022-08-20T11:32:20;4.43;;;2.72;;
20888;SDS011;10604;51.976;7.594;2022-08-20T11:34:46;5.00;;;3.33;;
20888;SDS011;10604;51.976;7.594;2022-08-20T11:37:12;5.70;;;2.90;;
20888;SDS011;10604;51.976;7.594;2022-08-20T11:39:39;5.03;;;2.85;;
20888;SDS011;10604;51.976;7.594;2022-08-20T11:42:05;4.03;;;3.00;;
20888;SDS011;10604;51.976;7.594;2022-08-20T11:44:30;6.32;;;3.17;;
20888;SDS011;10604;51.976;7.594;2022-08-20T11:46:59;4.73;;;3.00;;
20888;SDS011;10604;51.976;7.594;2022-08-20T11:49:27;3.95;;;2.90;;
20888;SDS011;10604;51.976;7.594;2022-08-20T11:51:59;3.53;;;2.65;;
20888;SDS011;10604;51.976;7.594;2022-08-20T11:54:25;3.80;;;2.53;;
20888;SDS011;10604;51.976;7.594;2022-08-20T11:56:55;5.93;;;2.90;;
20888;SDS011;10604;51.976;7.594;2022-08-20T11:59:22;4.63;;;2.80;;
20888;SDS011;10604;51.976;7.594;2022-08-20T12:01:48;4.28;;;2.88;;
20888;SDS011;10604;51.976;7.594;2022-08-20T12:04:14;4.93;;;2.70;;
20888;SDS011;10604;51.976;7.594;2022-08-20T12:06:39;6.37;;;3.27;;
20888;SDS011;10604;51.976;7.594;2022-08-20T12:09:04;4.80;;;3.00;;
20888;SDS011;10604;51.976;7.594;2022-08-20T12:11:30;7.38;;;3.00;;
20888;SDS011;10604;51.976;7.594;2022-08-20T12:13:55;6.37;;;3.10;;
20888;SDS011;10604;51.976;7.594;2022-08-20T12:16:21;5.80;;;3.00;;
20888;SDS011;10604;51.976;7.594;2022-08-20T12:18:46;5.57;;;3.70;;
20888;SDS011;10604;51.976;7.594;2022-08-20T12:21:12;7.07;;;3.77;;
20888;SDS011;10604;51.976;7.594;2022-08-20T12:23:38;5.03;;;3.50;;
20888;SDS011;10604;51.976;7.594;2022-08-20T12:26:03;5.73;;;3.50;;
20888;SDS011;10604;51.976;7.594;2022-08-20T12:28:29;8.02;;;3.50;;
20888;SDS011;10604;51.976;7.594;2022-08-20T12:30:55;5.45;;;3.22;;
20888;SDS011;10604;51.976;7.594;2022-08-20T12:33:21;6.75;;;3.42;;
20888;SDS011;10604;51.976;7.594;2022-08-20T12:35:47;5.90;;;3.25;;
20888;SDS011;10604;51.976;7.594;2022-08-20T12:38:12;7.80;;;3.77;;
20888;SDS011;10604;51.976;7.594;2022-08-20T12:40:38;6.37;;;3.60;;
20888;SDS011;10604;51.976;7.594;2022-08-20T12:43:04;4.78;;;3.30;;
20888;SDS011;10604;51.976;7.594;2022-08-20T12:45:30;5.80;;;3.33;;
20888;SDS011;10604;51.976;7.594;2022-08-20T12:48:04;4.47;;;3.13;;
20888;SDS011;10604;51.976;7.594;2022-08-20T12:50:35;5.63;;;3.20;;
20888;SDS011;10604;51.976;7.594;2022-08-20T12:53:02;4.77;;;2.80;;
20888;SDS011;10604;51.976;7.594;2022-08-20T12:55:28;3.50;;;2.63;;
20888;SDS011;10604;51.976;7.594;2022-08-20T12:57:56;5.00;;;2.95;;
20888;SDS011;10604;51.976;7.594;2022-08-20T13:00:28;4.03;;;2.30;;
20888;SDS011;10604;51.976;7.594;2022-08-20T13:02:56;6.15;;;3.33;;
20888;SDS011;10604;51.976;7.594;2022-08-20T13:05:23;4.00;;;2.70;;
20888;SDS011;10604;51.976;7.594;2022-08-20T13:07:49;6.18;;;2.88;;
20888;SDS011;10604;51.976;7.594;2022-08-20T13:10:17;4.53;;;2.87;;
20888;SDS011;10604;51.976;7.594;2022-08-20T13:12:52;3.28;;;2.35;;
20888;SDS011;10604;51.976;7.594;2022-08-20T13:15:18;6.75;;;3.00;;
20888;SDS011;10604;51.976;7.594;2022-08-20T13:17:44;4.97;;;2.85;;
20888;SDS011;10604;51.976;7.594;2022-08-20T13:20:13;4.87;;;3.10;;
20888;SDS011;10604;51.976;7.594;2022-08-20T13:22:40;5.65;;;2.63;;
20888;SDS011;10604;51.976;7.594;2022-08-20T13:25:06;6.22;;;3.17;;
20888;SDS011;10604;51.976;7.594;2022-08-20T13:27:32;3.58;;;2.67;;
20888;SDS011;10604;51.976;7.594;2022-08-20T13:30:02;4.05;;;2.35;;
20888;SDS011;10604;51.976;7.594;2022-08-20T13:32:28;4.65;;;2.33;;
20888;SDS011;10604;51.976;7.594;2022-08-20T13:34:54;6.00;;;2.23;;
20888;SDS011;10604;51.976;7.594;2022-08-20T13:37:21;4.50;;;2.55;;
20888;SDS011;10604;51.976;7.594;2022-08-20T13:39:50;3.95;;;2.00;;
20888;SDS011;10604;51.976;7.594;2022-08-20T13:42:15;5.37;;;2.30;;
20888;SDS011;10604;51.976;7.594;2022-08-20T13:44:41;7.18;;;2.22;;
20888;SDS011;10604;51.976;7.594;2022-08-20T13:47:18;5.25;;;2.30;;
20888;SDS011;10604;51.976;7.594;2022-08-20T13:49:46;4.13;;;2.20;;
20888;SDS011;10604;51.976;7.594;2022-08-20T13:52:13;5.07;;;2.22;;
20888;SDS011;10604;51.976;7.594;2022-08-20T13:54:38;5.63;;;2.20;;
20888;SDS011;10604;51.976;7.594;2022-08-20T13:57:08;4.03;;;2.05;;
20888;SDS011;10604;51.976;7.594;2022-08-20T13:59:42;6.03;;;2.33;;
20888;SDS011;10604;51.976;7.594;2022-08-20T14:02:09;3.38;;;2.00;;
20888;SDS011;10604;51.976;7.594;2022-08-20T14:04:36;8.10;;;2.30;;
20888;SDS011;10604;51.976;7.594;2022-08-20T14:07:11;6.38;;;2.28;;
20888;SDS011;10604;51.976;7.594;2022-08-20T14:09:40;4.65;;;2.10;;
20888;SDS011;10604;51.976;7.594;2022-08-20T14:12:08;4.60;;;2.45;;
20888;SDS011;10604;51.976;7.594;2022-08-20T14:14:34;6.43;;;2.60;;
20888;SDS011;10604;51.976;7.594;2022-08-20T14:17:11;6.17;;;2.50;;
20888;SDS011;10604;51.976;7.594;2022-08-20T14:19:46;5.22;;;2.30;;
20888;SDS011;10604;51.976;7.594;2022-08-20T14:22:13;5.43;;;2.30;;
20888;SDS011;10604;51.976;7.594;2022-08-20T14:24:41;5.83;;;2.43;;
20888;SDS011;10604;51.976;7.594;2022-08-20T14:27:07;4.05;;;2.00;;
20888;SDS011;10604;51.976;7.594;2022-08-20T14:29:34;6.38;;;2.50;;
20888;SDS011;10604;51.976;7.594;2022-08-20T14:32:02;10.27;;;2.67;;
20888;SDS011;10604;51.976;7.594;2022-08-20T14:34:29;6.10;;;2.65;;
20888;SDS011;10604;51.976;7.594;2022-08-20T14:36:54;5.70;;;2.50;;
20888;SDS011;10604;51.976;7.594;2022-08-20T14:39:21;6.50;;;2.50;;
20888;SDS011;10604;51.976;7.594;2022-08-20T14:41:48;6.05;;;2.65;;
20888;SDS011;10604;51.976;7.594;2022-08-20T14:44:14;6.90;;;2.70;;
20888;SDS011;10604;51.976;7.594;2022-08-20T14:46:39;5.93;;;2.57;;